Time;durP1;ratioP1;P1;durP2;ratioP2;P2;SDS_P1;SDS_P2;PMS_P1;PMS_P2;Temp;Humidity;BMP_temperature;BMP_pressure;BME280_temperature;BME280_humidity;BME280_pressure;Samples;Min_cycle;Max_cycle;Signal;HPM_P1;HPM_P2
2021/06/21 00:00:06;;;;;;;;;;;;;;;;;;;;;
2021/06/21 00:03:30;;;;;;;;;;;;;;;22.54;50.67;99743.80;128299;1101;22426;-81
2021/06/21 00:06:14;;;;;;;4.58;3.55;;;;;;;22.45;51.03;99739.98;128288;1098;22197;-78
2021/06/21 00:09:59;;;;;;;7.08;4.45;;;;;;;22.38;51.41;99735.91;128238;1098;22426;-78
2021/06/21 00:13:02;;;;;;;6.33;3.75;;;;;;;22.33;51.69;99733.20;128247;1098;22408;-81
2021/06/21 00:15:55;;;;;;;6.93;4.08;;;;;;;22.27;51.79;99724.28;128262;1098;23267;-80
2021/06/21 00:19:35;;;;;;;6.65;4.05;;;;;;;22.21;51.98;99728.01;128137;1098;24248;-81
2021/06/21 00:22:26;;;;;;;4.40;4.00;;;;;;;22.09;52.30;99733.53;128334;1098;24643;-79
2021/06/21 00:25:28;;;;;;;;;;;;;;;;;;;;;
2021/06/21 00:28:28;;;;;;;7.90;4.13;;;;;;;21.95;53.06;99725.10;128306;1098;22505;-80
2021/06/21 00:31:21;;;;;;;7.90;4.33;;;;;;;21.92;53.28;99722.13;128399;1098;22388;-80
2021/06/21 00:34:39;;;;;;;5.80;3.53;;;;;;;21.87;53.60;99720.22;128385;1098;22411;-80
2021/06/21 00:37:19;;;;;;;7.67;4.57;;;;;;;21.83;53.69;99719.92;128432;1098;22414;-80
2021/06/21 00:40:15;;;;;;;4.83;3.60;;;;;;;21.82;54.05;99717.47;128392;1098;22410;-80
2021/06/21 00:43:05;;;;;;;6.08;3.95;;;;;;;21.82;54.04;99722.85;128347;1098;24836;-81
2021/06/21 00:46:21;;;;;;;;;;;;;;;21.78;54.56;99716.38;128425;1097;22395;-80
2021/06/21 00:49:10;;;;;;;7.58;4.20;;;;;;;21.75;54.18;99715.00;128394;1098;21626;-80
2021/06/21 00:51:50;;;;;;;8.38;4.08;;;;;;;21.78;54.08;99716.38;128263;1101;22404;-80
2021/06/21 00:54:48;;;;;;;6.08;3.90;;;;;;;21.76;54.45;99705.05;128069;1101;22420;-81
2021/06/21 00:58:00;;;;;;;6.45;4.10;;;;;;;21.74;54.28;99699.14;127950;1101;24454;-80
2021/06/21 01:01:04;;;;;;;;;;;;;;;;;;;;;
2021/06/21 01:04:41;;;;;;;5.55;3.40;;;;;;;21.72;54.86;99704.77;127897;1105;22419;-81
2021/06/21 01:08:01;;;;;;;7.10;4.10;;;;;;;21.74;54.65;99699.14;127246;1105;23456;-80
2021/06/21 01:11:27;;;;;;;6.58;4.83;;;;;;;21.70;54.97;99695.36;126996;1108;22486;-81
2021/06/21 01:14:27;;;;;;;5.28;3.73;;;;;;;21.69;55.04;99691.83;126908;1111;24282;-80
2021/06/21 01:17:38;;;;;;;5.45;4.20;;;;;;;21.68;55.27;99694.79;127146;1108;24612;-80
2021/06/21 01:21:30;;;;;;;5.48;3.53;;;;;;;21.63;55.00;99695.57;127403;1105;24572;-81
2021/06/21 01:25:04;;;;;;;4.70;4.30;;;;;;;21.59;55.81;99699.81;127459;1104;22417;-80
2021/06/21 01:28:02;;;;;;;5.30;3.98;;;;;;;21.59;56.01;99681.00;127913;1101;23144;-83
2021/06/21 01:31:12;;;;;;;6.13;4.50;;;;;;;21.60;55.82;99682.64;127972;1101;24534;-79
2021/06/21 01:33:51;;;;;;;6.73;4.20;;;;;;;21.57;56.01;99673.21;128044;1101;23224;-79
2021/06/21 01:36:40;;;;;;;6.73;4.15;;;;;;;21.58;56.28;99674.02;127955;1100;22608;-81
2021/06/21 01:39:29;;;;;;;11.90;3.98;;;;;;;21.59;56.51;99672.94;128232;1101;22401;-80
2021/06/21 01:42:56;;;;;;;5.58;4.50;;;;;;;21.56;56.28;99671.59;127861;1101;22438;-80
2021/06/21 01:45:57;;;;;;;4.98;4.50;;;;;;;21.56;56.42;99666.22;127963;1101;22452;-80
2021/06/21 01:49:18;;;;;;;11.63;5.05;;;;;;;21.53;56.62;99676.67;127775;1104;22510;-81
2021/06/21 01:52:45;;;;;;;4.83;4.18;;;;;;;21.52;57.09;99675.84;127699;1101;22425;-82
2021/06/21 01:55:41;;;;;;;;;;;;;;;;;;;;;
2021/06/21 01:58:38;;;;;;;6.23;4.85;;;;;;;21.45;57.01;99675.25;127927;1101;22421;-82
2021/06/21 02:01:42;;;;;;;9.50;4.95;;;;;;;21.44;57.41;99684.38;128060;1101;22413;-80
2021/06/21 02:04:47;;;;;;;5.20;4.75;;;;;;;21.45;57.13;99683.31;128128;1100;22482;-81
2021/06/21 02:07:44;;;;;;;6.48;4.95;;;;;;;21.45;57.55;99672.56;128271;1097;23244;-80
2021/06/21 02:13:41;;;;;;;6.55;4.93;;;;;;;21.43;57.68;99669.34;128547;1098;22420;-80
2021/06/21 02:17:10;;;;;;;8.07;4.80;;;;;;;21.42;58.06;99665.01;128260;1101;22883;-81
2021/06/21 02:19:58;;;;;;;6.15;4.75;;;;;;;21.42;58.10;99678.44;128064;1101;22416;-81
2021/06/21 02:22:44;;;;;;;5.98;4.88;;;;;;;21.42;58.32;99680.32;128033;1101;22388;-80
2021/06/21 02:25:35;;;;;;;6.25;4.85;;;;;;;21.42;58.27;99691.07;127973;1101;22402;-80
2021/06/21 02:29:12;;;;;;;10.15;5.65;;;;;;;21.41;58.51;99694.83;127683;1101;23323;-80
2021/06/21 02:32:12;;;;;;;7.37;6.33;;;;;;;21.38;58.91;99688.09;127854;1101;22883;-79
2021/06/21 02:35:09;;;;;;;10.20;9.25;;;;;;;21.37;59.03;99694.53;128048;1100;22397;-80
2021/06/21 02:38:53;;;;;;;10.08;6.70;;;;;;;21.36;59.02;99692.92;128121;1101;22414;-81
2021/06/21 02:42:21;;;;;;;7.05;6.30;;;;;;;21.34;58.94;99687.79;128293;1098;22419;-82
2021/06/21 02:45:34;;;;;;;8.77;7.17;;;;;;;21.30;59.20;99692.02;128281;1098;22401;-81
2021/06/21 02:49:05;;;;;;;10.95;6.95;;;;;;;21.29;59.10;99686.89;128389;1098;22493;-80
2021/06/21 02:52:35;;;;;;;9.63;7.70;;;;;;;21.23;59.43;99695.98;128432;1098;22422;-80
2021/06/21 02:56:27;;;;;;;9.65;6.85;;;;;;;21.23;60.16;99706.73;128252;1101;22396;-79
2021/06/21 02:59:34;;;;;;;7.90;6.38;;;;;;;21.21;60.03;99712.34;127873;1101;22414;-80
2021/06/21 03:03:11;;;;;;;;;;;;;;;;;;;;;
2021/06/21 03:06:28;;;;;;;10.50;7.83;;;;;;;21.26;60.61;99728.52;127760;1101;22431;-80
2021/06/21 03:09:15;;;;;;;8.83;6.20;;;;;;;21.30;60.13;99723.45;127436;1105;22422;-79
2021/06/21 03:12:54;;;;;;;7.78;6.33;;;;;;;21.34;60.37;99738.83;127595;1105;22423;-81
2021/06/21 03:16:30;;;;;;;6.78;6.08;;;;;;;21.36;60.47;99736.72;127338;1105;22436;-80
2021/06/21 03:19:50;;;;;;;;;;;;;;;;;;;;;
2021/06/21 03:23:19;;;;;;;13.65;7.88;;;;;;;21.51;60.89;99732.55;126914;1108;22570;-80
2021/06/21 03:26:10;;;;;;;8.90;7.73;;;;;;;21.54;60.71;99734.72;126916;1108;22448;-80
2021/06/21 03:29:22;;;;;;;14.35;7.20;;;;;;;21.53;60.61;99725.85;127103;1108;24630;-80
2021/06/21 03:32:41;;;;;;;9.55;7.28;;;;;;;21.56;60.75;99721.86;127619;1101;22417;-80
2021/06/21 03:36:02;;;;;;;12.75;8.80;;;;;;;21.54;60.76;99719.41;128045;1101;22412;-80
2021/06/21 03:38:53;;;;;;;13.75;6.83;;;;;;;21.57;60.87;99716.21;128121;1098;24234;-79
2021/06/21 03:41:51;;;;;;;13.60;7.68;;;;;;;21.63;61.04;99716.27;128341;1098;22496;-79
2021/06/21 03:45:00;;;;;;;12.03;7.40;;;;;;;21.66;60.75;99710.35;128031;1098;24637;-79
2021/06/21 03:47:45;;;;;;;9.20;7.68;;;;;;;21.67;61.20;99706.62;127788;1101;22384;-80
2021/06/21 03:50:55;;;;;;;9.53;7.00;;;;;;;21.69;61.25;99701.78;128033;1101;24524;-79
2021/06/21 03:53:55;;;;;;;9.50;7.55;;;;;;;21.73;61.50;99706.41;128241;1101;22377;-79
2021/06/21 03:56:53;;;;;;;14.28;8.10;;;;;;;21.80;61.47;99714.25;127592;1101;22395;-78
2021/06/21 03:59:45;;;;;;;8.13;7.30;;;;;;;21.88;61.61;99707.58;127857;1103;22393;-79
2021/06/21 04:02:34;;;;;;;9.95;8.08;;;;;;;21.94;61.45;99709.23;127280;1101;24364;-78
2021/06/21 04:05:37;;;;;;;11.58;7.53;;;;;;;21.99;61.64;99706.57;127826;1101;24251;-81
2021/06/21 04:08:37;;;;;;;13.13;7.40;;;;;;;22.05;61.78;99705.54;127852;1104;22560;-80
2021/06/21 04:11:29;;;;;;;10.10;7.08;;;;;;;22.09;61.57;99712.02;127877;1104;23167;-79
2021/06/21 04:14:30;;;;;;;11.30;7.75;;;;;;;22.15;61.64;99715.55;127587;1101;24291;-80
2021/06/21 04:17:46;;;;;;;;;;;;;;;;;;;;;
2021/06/21 04:21:22;;;;;;;;;;;;;;;;;;;;;
2021/06/21 04:24:15;;;;;;;15.40;8.23;;;;;;;22.40;61.71;99710.36;127872;1101;22391;-80
2021/06/21 04:27:58;;;;;;;13.30;7.87;;;;;;;22.53;61.48;99706.39;127939;1101;23338;-80
2021/06/21 04:31:29;;;;;;;15.03;8.55;;;;;;;22.67;61.13;99704.03;127974;1101;22819;-81
2021/06/21 04:34:15;;;;;;;12.93;8.30;;;;;;;22.79;61.44;99700.05;127409;1105;22436;-81
2021/06/21 04:37:17;;;;;;;12.80;7.50;;;;;;;22.89;61.30;99699.27;127844;1101;22402;-81
2021/06/21 04:40:24;;;;;;;16.03;7.87;;;;;;;22.98;61.09;99699.58;127921;1104;22394;-80
2021/06/21 04:43:37;;;;;;;11.75;7.63;;;;;;;23.12;61.15;99691.79;127530;1104;24560;-79
2021/06/21 04:46:50;;;;;;;12.50;8.33;;;;;;;23.22;60.99;99697.19;127999;1101;22415;-80
2021/06/21 04:50:13;;;;;;;11.05;7.50;;;;;;;23.33;60.87;99703.43;127931;1101;22497;-80
2021/06/21 04:53:15;;;;;;;8.80;7.85;;;;;;;23.50;60.84;99695.89;128238;1101;22454;-80
2021/06/21 04:56:05;;;;;;;9.00;7.13;;;;;;;23.69;60.33;99696.17;128281;1101;22401;-80
2021/06/21 04:58:57;;;;;;;13.33;7.98;;;;;;;23.85;60.19;99702.38;128374;1098;22412;-81
2021/06/21 05:02:28;;;;;;;10.63;8.23;;;;;;;24.03;59.50;99701.02;128449;1098;23164;-78
2021/06/21 05:05:59;;;;;;;;;;;;;;;;;;;;;
2021/06/21 05:09:13;;;;;;;;;;;;;;;;;;;;;
2021/06/21 05:12:40;;;;;;;11.25;7.70;;;;;;;24.61;58.57;99723.02;127545;1105;22416;-79
2021/06/21 05:16:13;;;;;;;;;;;;;;;;;;;;;
2021/06/21 05:19:55;;;;;;;8.25;6.55;;;;;;;24.99;57.35;99716.11;127734;1105;22418;-81
2021/06/21 05:22:41;;;;;;;7.98;6.63;;;;;;;25.17;57.17;99722.78;127492;1104;22414;-81
2021/06/21 05:25:50;;;;;;;10.30;6.55;;;;;;;25.40;56.94;99712.37;127602;1103;22407;-82
2021/06/21 05:29:04;;;;;;;8.63;6.30;;;;;;;25.70;56.93;99719.44;127509;1105;24550;-82
2021/06/21 05:32:09;;;;;;;8.43;5.93;;;;;;;26.09;56.00;99716.68;127887;1104;24649;-79
2021/06/21 05:34:59;;;;;;;14.98;13.73;;;;;;;26.36;55.14;99715.29;127427;1105;22408;-81
2021/06/21 05:37:54;;;;;;;7.53;6.18;;;;;;;26.62;54.31;99715.84;127445;1105;22453;-82
2021/06/21 05:44:50;;;;;;;7.08;6.00;;;;;;;27.35;52.94;99707.27;128284;1098;22425;-81
2021/06/21 05:48:12;;;;;;;7.93;6.03;;;;;;;27.80;51.77;99712.30;128227;1098;24228;-81
2021/06/21 05:51:26;;;;;;;10.78;5.68;;;;;;;28.25;50.78;99715.27;128352;1097;22362;-81
2021/06/21 05:53:57;;;;;;;12.88;5.55;;;;;;;28.59;49.85;99723.05;128229;1098;22371;-82
2021/06/21 05:56:42;;;;;;;7.00;5.23;;;;;;;28.89;49.14;99718.08;128301;1098;22697;-81
2021/06/21 05:59:45;;;;;;;18.10;6.67;;;;;;;29.25;48.48;99721.64;128252;1098;22394;-81
2021/06/21 06:02:55;;;;;;;8.90;5.83;;;;;;;29.58;47.39;99707.81;128292;1098;22378;-82
2021/06/21 06:05:39;;;;;;;12.88;5.58;;;;;;;29.93;47.05;99710.79;128276;1098;22382;-82
2021/06/21 06:08:30;;;;;;;10.05;4.78;;;;;;;30.24;45.62;99711.59;128011;1099;22429;-82
2021/06/21 06:11:42;;;;;;;12.60;4.70;;;;;;;30.45;45.36;99711.82;127944;1101;25077;-81
2021/06/21 06:14:45;;;;;;;11.35;5.00;;;;;;;30.73;44.38;99714.32;127889;1101;22931;-81
2021/06/21 06:18:03;;;;;;;7.63;4.23;;;;;;;30.86;43.55;99712.61;127790;1101;24231;-81
2021/06/21 06:20:51;;;;;;;11.33;5.65;;;;;;;31.16;43.08;99703.48;128036;1101;22390;-81
2021/06/21 06:23:49;;;;;;;10.73;4.60;;;;;;;31.41;42.41;99703.81;127987;1101;22405;-82
2021/06/21 06:26:42;;;;;;;11.13;4.00;;;;;;;31.55;42.05;99703.63;128060;1101;22464;-82
2021/06/21 06:30:06;;;;;;;7.33;3.63;;;;;;;31.77;41.32;99695.24;127973;1101;24232;-80
2021/06/21 06:32:59;;;;;;;7.38;3.50;;;;;;;32.00;40.18;99689.59;128115;1101;23190;-81
2021/06/21 06:36:13;;;;;;;11.50;4.35;;;;;;;31.99;39.93;99687.97;127944;1101;22391;-81
2021/06/21 06:39:08;;;;;;;12.53;4.65;;;;;;;32.14;39.49;99681.97;128049;1101;22433;-82
2021/06/21 06:41:39;;;;;;;10.73;4.35;;;;;;;32.15;39.19;99674.56;127997;1101;22392;-81
2021/06/21 06:44:10;;;;;;;12.65;4.50;;;;;;;32.04;38.96;99674.14;127971;1101;22495;-83
2021/06/21 06:46:41;;;;;;;10.48;4.48;;;;;;;32.11;38.80;99679.89;128002;1101;22385;-84
2021/06/21 06:49:12;;;;;;;13.28;4.68;;;;;;;32.07;38.58;99682.48;128157;1098;22372;-80
2021/06/21 06:51:48;;;;;;;12.40;4.35;;;;;;;31.93;38.62;99675.64;128363;1098;22842;-82
2021/06/21 06:57:25;;;;;;;10.95;4.45;;;;;;;32.12;38.36;99678.75;128428;1098;22376;-82
2021/06/21 07:00:13;;;;;;;9.23;4.88;;;;;;;32.38;38.15;99675.10;128410;1098;22376;-82
2021/06/21 07:03:00;;;;;;;16.75;10.78;;;;;;;32.73;37.22;99676.53;128274;1101;22392;-83
2021/06/21 07:06:05;;;;;;;;;;;;;;;;;;;;;
2021/06/21 07:12:35;;;;;;;7.88;3.88;;;;;;;32.63;36.67;99676.13;127963;1101;23338;-84
2021/06/21 07:15:44;;;;;;;13.25;5.23;;;;;;;32.57;36.47;99683.70;127991;1101;24553;-81
2021/06/21 07:18:19;;;;;;;13.63;4.53;;;;;;;32.60;36.42;99682.25;128036;1101;24537;-85
2021/06/21 07:21:20;;;;;;;10.30;4.60;;;;;;;32.69;35.98;99686.54;128178;1101;22394;-85
2021/06/21 07:24:30;;;;;;;13.15;5.23;;;;;;;32.71;36.49;99675.25;127988;1101;22404;-83
2021/06/21 07:27:30;;;;;;;13.38;4.33;;;;;;;33.04;35.69;99683.56;127833;1101;22409;-85
2021/06/21 07:30:50;;;;;;;10.50;4.05;;;;;;;33.33;35.68;99681.88;128002;1101;22460;-82
2021/06/21 07:35:20;;;;;;;11.60;4.25;;;;;;;33.86;34.70;99685.70;128388;1100;22398;-85
2021/06/21 07:38:00;;;;;;;12.65;5.73;;;;;;;34.16;33.88;99672.64;128034;1104;22385;-84
2021/06/21 07:41:06;;;;;;;7.08;3.93;;;;;;;34.32;33.69;99670.81;128157;1101;22392;-82
2021/06/21 07:44:02;;;;;;;8.30;4.75;;;;;;;34.46;32.98;99678.67;128136;1101;22404;-82
2021/06/21 07:46:47;;;;;;;10.28;4.08;;;;;;;34.15;33.50;99679.23;128134;1101;22381;-83
2021/06/21 07:49:36;;;;;;;11.95;4.45;;;;;;;33.91;33.67;99679.99;128108;1101;24560;-85
2021/06/21 07:52:20;;;;;;;11.80;4.35;;;;;;;33.74;33.49;99670.83;127927;1104;22413;-84
2021/06/21 07:54:58;;;;;;;12.50;4.25;;;;;;;33.70;33.86;99667.18;127956;1101;22402;-84
2021/06/21 07:57:42;;;;;;;12.08;4.13;;;;;;;33.65;34.15;99669.33;128070;1100;22400;-82
2021/06/21 08:00:50;;;;;;;8.55;4.15;;;;;;;33.91;33.76;99671.77;128336;1098;22380;-84
2021/06/21 08:03:45;;;;;;;17.48;4.05;;;;;;;34.31;33.13;99674.67;128358;1098;22370;-80
2021/06/21 08:06:24;;;;;;;8.15;3.85;;;;;;;34.42;32.37;99672.26;128095;1098;22366;-83
2021/06/21 08:09:15;;;;;;;;;;;;;;;;;;;;;
2021/06/21 08:11:58;;;;;;;12.30;4.33;;;;;;;34.38;32.54;99661.19;128030;1101;22523;-81
2021/06/21 08:14:47;;;;;;;9.20;3.70;;;;;;;34.63;32.10;99655.71;128071;1101;22460;-81
2021/06/21 08:17:45;;;;;;;12.10;4.25;;;;;;;34.70;31.42;99653.17;128223;1101;22395;-83
2021/06/21 08:20:32;;;;;;;10.48;3.40;;;;;;;34.50;31.39;99656.84;127963;1101;22430;-82
2021/06/21 08:23:20;;;;;;;12.15;4.18;;;;;;;34.25;31.65;99656.85;127968;1101;24553;-81
2021/06/21 08:25:54;;;;;;;10.48;3.50;;;;;;;34.47;31.85;99657.53;127974;1101;22407;-81
2021/06/21 08:28:36;;;;;;;;;;;;;;;;;;;;;
2021/06/21 08:31:16;;;;;;;9.90;3.80;;;;;;;34.73;30.74;99659.92;128257;1098;22384;-82
2021/06/21 08:33:58;;;;;;;12.00;3.45;;;;;;;34.76;30.59;99656.48;128304;1101;23280;-81
2021/06/21 08:36:42;;;;;;;12.75;3.40;;;;;;;34.83;30.27;99659.44;128301;1101;22491;-81
2021/06/21 08:39:20;;;;;;;15.55;3.98;;;;;;;34.56;30.70;99659.04;128406;1098;22385;-82
2021/06/21 08:42:07;;;;;;;11.40;3.08;;;;;;;34.50;30.66;99646.67;128406;1098;22707;-81
2021/06/21 08:45:09;;;;;;;11.85;3.20;;;;;;;34.59;30.95;99644.64;128459;1098;22375;-81
2021/06/21 08:47:50;;;;;;;10.28;2.93;;;;;;;34.77;30.27;99650.64;128382;1098;22488;-81
2021/06/21 08:50:27;;;;;;;18.20;3.35;;;;;;;34.82;29.55;99639.44;128381;1098;22401;-82
2021/06/21 08:53:01;;;;;;;17.18;4.38;;;;;;;34.72;29.35;99642.64;128379;1098;22388;-84
2021/06/21 08:55:46;;;;;;;11.85;2.90;;;;;;;34.97;29.26;99640.63;128419;1098;23655;-84
2021/06/21 08:58:25;;;;;;;14.95;3.10;;;;;;;35.12;28.41;99639.92;128345;1098;22369;-82
2021/06/21 09:01:03;;;;;;;11.58;3.25;;;;;;;35.04;28.33;99638.11;128407;1098;22382;-82
2021/06/21 09:03:44;;;;;;;18.00;4.25;;;;;;;34.87;28.62;99630.16;128442;1100;22488;-81
2021/06/21 09:06:37;;;;;;;10.23;3.45;;;;;;;34.72;29.09;99631.66;128413;1101;22654;-82
2021/06/21 09:09:20;;;;;;;12.50;3.05;;;;;;;34.74;28.91;99628.59;128079;1101;22448;-83
2021/06/21 09:12:07;;;;;;;22.50;3.75;;;;;;;34.78;28.54;99624.80;128075;1101;24531;-81
2021/06/21 09:14:59;;;;;;;13.73;4.58;;;;;;;34.74;28.78;99615.67;128017;1101;24553;-81
2021/06/21 09:17:44;;;;;;;14.15;3.25;;;;;;;34.69;28.14;99615.93;128072;1101;22404;-81
2021/06/21 09:20:52;;;;;;;22.13;3.90;;;;;;;34.59;28.01;99611.72;127530;1105;22432;-84
2021/06/21 09:23:58;;;;;;;16.08;3.58;;;;;;;34.28;28.08;99608.77;127802;1101;22426;-84
2021/06/21 09:27:21;;;;;;;16.13;4.05;;;;;;;34.08;28.47;99614.03;127930;1101;22456;-81
2021/06/21 09:30:24;;;;;;;19.28;3.53;;;;;;;34.02;28.48;99598.96;128063;1101;24937;-84
2021/06/21 09:33:46;;;;;;;16.03;3.85;;;;;;;34.05;28.04;99602.96;128239;1101;22846;-86
2021/06/21 09:37:08;;;;;;;;;;;;;;;;;;;;;
2021/06/21 09:40:40;;;;;;;12.40;3.60;;;;;;;34.32;28.39;99607.75;128299;1101;22929;-83
2021/06/21 09:43:34;;;;;;;17.80;3.87;;;;;;;34.43;28.35;99613.55;128230;1101;25063;-82
2021/06/21 09:46:42;;;;;;;13.03;3.18;;;;;;;34.40;27.68;99603.28;128074;1101;22401;-83
2021/06/21 09:50:44;;;;;;;15.98;3.93;;;;;;;34.36;28.40;99607.86;128109;1101;22445;-84
2021/06/21 09:53:44;;;;;;;9.73;3.00;;;;;;;34.37;27.83;99603.97;128273;1101;23329;-84
2021/06/21 09:56:54;;;;;;;24.58;4.75;;;;;;;34.20;27.95;99599.53;127945;1101;22418;-83
2021/06/21 10:03:16;;;;;;;23.30;4.53;;;;;;;34.36;28.35;99600.42;127840;1105;22405;-82
2021/06/21 10:06:14;;;;;;;15.25;4.35;;;;;;;34.44;28.22;99595.95;127858;1102;22407;-83
2021/06/21 10:09:16;;;;;;;14.28;4.13;;;;;;;34.52;27.80;99581.32;127897;1105;22423;-83
2021/06/21 10:12:14;;;;;;;;;;;;;;;;;;;;;
2021/06/21 10:15:21;;;;;;;17.03;3.80;;;;;;;34.74;27.81;99590.19;127905;1105;23176;-84
2021/06/21 10:18:17;;;;;;;10.05;3.83;;;;;;;34.81;27.86;99588.44;127797;1101;22838;-82
2021/06/21 10:21:38;;;;;;;11.00;3.60;;;;;;;34.65;27.76;99593.06;127554;1105;22438;-83
2021/06/21 10:24:54;;;;;;;;;;;;;;;34.61;27.73;99583.94;127885;1104;24566;-82
2021/06/21 10:27:54;;;;;;;11.20;3.70;;;;;;;34.55;27.86;99583.38;127853;1103;22639;-83
2021/06/21 10:31:00;;;;;;;12.58;3.43;;;;;;;34.49;28.14;99584.75;127524;1105;23064;-87
2021/06/21 10:33:49;;;;;;;14.50;4.30;;;;;;;34.27;27.88;99577.03;127567;1101;22425;-87
2021/06/21 10:37:09;;;;;;;;;;;;;;;34.11;28.15;99579.67;127980;1101;24254;-83
2021/06/21 10:45:00;;;;;;;12.20;3.13;;;;;;;33.68;29.22;99565.37;128121;1101;22423;-82
2021/06/21 10:48:15;;;;;;;16.03;3.48;;;;;;;33.73;29.34;99575.32;128015;1101;22487;-84
2021/06/21 10:51:50;;;;;;;14.60;4.20;;;;;;;33.83;29.28;99566.64;128054;1100;22411;-82
2021/06/21 10:55:40;;;;;;;11.90;3.93;;;;;;;33.62;29.36;99576.89;128237;1101;22563;-82
2021/06/21 10:58:41;;;;;;;14.23;4.27;;;;;;;33.66;29.30;99564.93;128027;1101;22393;-85
2021/06/21 11:01:25;;;;;;;13.10;3.85;;;;;;;33.68;28.94;99561.84;127983;1101;22400;-84
2021/06/21 11:04:38;;;;;;;15.00;4.43;;;;;;;33.65;29.09;99560.57;127932;1101;22392;-86
2021/06/21 11:08:24;;;;;;;13.25;3.45;;;;;;;33.62;29.43;99550.33;127982;1101;22453;-84
2021/06/21 11:12:13;;;;;;;12.40;4.90;;;;;;;33.50;29.72;99540.16;127784;1104;23149;-81
2021/06/21 11:15:14;;;;;;;13.87;3.67;;;;;;;33.45;29.78;99550.48;127254;1105;22408;-83
2021/06/21 11:18:04;;;;;;;13.65;4.98;;;;;;;33.42;29.79;99529.27;128127;1101;22413;-84
2021/06/21 11:20:49;;;;;;;12.00;3.93;;;;;;;33.49;29.59;99538.56;127958;1101;22415;-83
2021/06/21 11:23:53;;;;;;;15.18;4.13;;;;;;;33.40;29.83;99517.88;127607;1105;22438;-84
2021/06/21 11:27:01;;;;;;;12.30;3.58;;;;;;;33.35;30.08;99534.51;127376;1104;24559;-82
2021/06/21 11:30:06;;;;;;;11.48;3.35;;;;;;;33.38;29.98;99522.88;127378;1104;22424;-84
2021/06/21 11:34:06;;;;;;;15.28;4.25;;;;;;;33.36;29.92;99522.44;127578;1101;22400;-84
2021/06/21 11:36:55;;;;;;;8.15;3.43;;;;;;;33.37;30.25;99522.08;127353;1104;22556;-83
2021/06/21 11:39:34;;;;;;;14.05;3.80;;;;;;;33.39;29.93;99508.05;126997;1108;22502;-84
2021/06/21 11:42:13;;;;;;;10.88;4.13;;;;;;;33.44;30.37;99513.31;127058;1108;22474;-84
2021/06/21 11:44:49;;;;;;;9.80;3.07;;;;;;;33.38;30.13;99500.98;126973;1108;23236;-85
2021/06/21 11:47:29;;;;;;;14.43;4.28;;;;;;;33.36;29.95;99500.54;127029;1105;22465;-84
2021/06/21 11:50:12;;;;;;;13.48;4.03;;;;;;;33.28;30.21;99492.06;127739;1105;22423;-86
2021/06/21 11:52:51;;;;;;;14.73;6.05;;;;;;;33.28;30.11;99500.28;127869;1105;22913;-85
2021/06/21 11:55:28;;;;;;;13.75;3.70;;;;;;;33.41;29.87;99498.36;127400;1103;22428;-86
2021/06/21 11:57:59;;;;;;;10.85;3.63;;;;;;;33.40;29.76;99495.97;127465;1104;22424;-85
2021/06/21 12:00:36;;;;;;;9.28;3.30;;;;;;;33.39;29.48;99495.18;127832;1105;22848;-83
2021/06/21 12:03:33;;;;;;;13.97;3.70;;;;;;;33.41;29.53;99494.83;127407;1105;22498;-84
2021/06/21 12:06:19;;;;;;;11.38;3.53;;;;;;;33.44;29.40;99491.41;127550;1104;22425;-82
2021/06/21 12:09:04;;;;;;;9.93;3.60;;;;;;;33.49;29.55;99486.55;127855;1101;22406;-84
2021/06/21 12:11:51;;;;;;;;;;;;;;;;;;;;;
2021/06/21 12:14:27;;;;;;;16.28;4.20;;;;;;;33.39;29.14;99488.88;127971;1101;22388;-82
2021/06/21 12:17:46;;;;;;;14.03;4.28;;;;;;;33.37;29.27;99489.23;128126;1098;22401;-82
2021/06/21 12:20:57;;;;;;;13.38;3.88;;;;;;;33.25;29.92;99472.80;128182;1101;22388;-84
2021/06/21 12:23:58;;;;;;;11.50;3.83;;;;;;;33.21;30.35;99471.88;127992;1101;22415;-83
2021/06/21 12:26:59;;;;;;;10.70;4.58;;;;;;;33.28;30.13;99466.64;128293;1101;22385;-82
2021/06/21 12:29:45;;;;;;;12.25;4.05;;;;;;;33.19;29.95;99450.34;127879;1101;24222;-82
2021/06/21 12:32:55;;;;;;;19.73;5.00;;;;;;;33.12;30.47;99454.77;127668;1101;22407;-85
2021/06/21 12:35:31;;;;;;;9.15;4.53;;;;;;;33.14;30.52;99449.76;127698;1105;24060;-85
2021/06/21 12:38:04;;;;;;;15.63;3.45;;;;;;;33.20;30.25;99445.66;127743;1105;22408;-82
2021/06/21 12:40:52;;;;;;;21.63;7.15;;;;;;;33.20;30.37;99445.66;127264;1105;22437;-84
2021/06/21 12:43:27;;;;;;;15.13;4.05;;;;;;;33.19;29.96;99446.78;127255;1105;22446;-81
2021/06/21 12:46:26;;;;;;;12.00;4.30;;;;;;;33.12;30.51;99452.02;127229;1105;22449;-82
2021/06/21 12:49:14;;;;;;;14.78;5.28;;;;;;;33.06;30.43;99436.97;127273;1104;22436;-81
2021/06/21 12:51:50;;;;;;;12.10;3.85;;;;;;;32.96;30.38;99433.55;127347;1104;22426;-82
2021/06/21 12:54:29;;;;;;;16.78;4.03;;;;;;;32.93;30.15;99445.14;127421;1104;22420;-82
2021/06/21 12:57:09;;;;;;;14.10;3.98;;;;;;;32.80;29.67;99435.31;127294;1108;25317;-82
2021/06/21 12:59:42;;;;;;;20.35;4.00;;;;;;;32.78;30.20;99435.64;127560;1104;22936;-83
2021/06/21 13:02:31;;;;;;;15.75;3.35;;;;;;;32.84;30.02;99443.64;127487;1104;24566;-81
2021/06/21 13:05:13;;;;;;;12.90;3.07;;;;;;;32.82;29.84;99441.23;127289;1104;23358;-83
2021/06/21 13:07:58;;;;;;;11.43;3.55;;;;;;;32.78;30.26;99427.44;127518;1101;22429;-82
2021/06/21 13:10:38;;;;;;;13.68;3.98;;;;;;;32.81;29.98;99428.70;127460;1104;25184;-81
2021/06/21 13:13:14;;;;;;;13.08;4.25;;;;;;;32.85;30.23;99437.02;127354;1105;24662;-82
2021/06/21 13:15:47;;;;;;;10.73;4.10;;;;;;;32.88;29.94;99442.61;127387;1104;22305;-83
2021/06/21 13:18:20;;;;;;;12.60;3.43;;;;;;;32.93;29.94;99433.41;127366;1104;22414;-82
2021/06/21 13:21:13;;;;;;;15.13;4.60;;;;;;;32.99;30.25;99434.79;127226;1105;22410;-86
2021/06/21 13:23:57;;;;;;;14.13;3.75;;;;;;;33.02;30.30;99442.32;127417;1105;24366;-84
2021/06/21 13:26:42;;;;;;;8.88;3.43;;;;;;;33.05;29.95;99447.11;127323;1105;22402;-84
2021/06/21 13:29:46;;;;;;;15.95;4.43;;;;;;;33.06;29.58;99446.00;127303;1105;23341;-83
2021/06/21 13:33:11;;;;;;;13.85;3.90;;;;;;;33.10;30.09;99457.85;127811;1101;22426;-83
2021/06/21 13:36:05;;;;;;;14.38;3.90;;;;;;;33.09;29.83;99463.65;127895;1105;24667;-83
2021/06/21 13:39:20;;;;;;;14.78;3.33;;;;;;;33.06;29.45;99470.63;127530;1104;24553;-81
2021/06/21 13:42:05;;;;;;;7.23;2.70;;;;;;;32.98;29.57;99482.45;127539;1105;22437;-81
2021/06/21 13:44:56;;;;;;;15.63;3.70;;;;;;;32.95;29.17;99477.62;127367;1105;22420;-80
2021/06/21 13:48:18;;;;;;;12.33;3.68;;;;;;;32.84;29.42;99479.99;127396;1104;22526;-82
2021/06/21 13:50:56;;;;;;;11.93;2.70;;;;;;;32.70;29.74;99469.36;127298;1104;22892;-83
2021/06/21 13:53:37;;;;;;;9.13;3.20;;;;;;;32.71;29.59;99470.95;127268;1105;22429;-81
2021/06/21 13:56:46;;;;;;;7.28;3.13;;;;;;;32.76;30.02;99472.69;127232;1105;24567;-83
2021/06/21 13:59:25;;;;;;;10.88;3.70;;;;;;;32.84;29.99;99469.05;127233;1105;22417;-83
2021/06/21 14:01:56;;;;;;;9.00;3.30;;;;;;;32.86;29.12;99460.52;127128;1105;22479;-81
2021/06/21 14:04:27;;;;;;;12.33;3.53;;;;;;;32.86;29.61;99461.31;127295;1105;22490;-82
2021/06/21 14:07:01;;;;;;;10.05;3.33;;;;;;;32.94;29.23;99462.35;127240;1105;22586;-85
2021/06/21 14:10:13;;;;;;;;;;;;;;;;;;;;;
2021/06/21 14:12:55;;;;;;;8.43;3.88;;;;;;;33.03;30.15;99468.56;127084;1104;22418;-84
2021/06/21 14:15:26;;;;;;;13.00;5.03;;;;;;;33.09;30.09;99478.16;127076;1105;22403;-83
2021/06/21 14:18:00;;;;;;;15.73;4.60;;;;;;;33.15;29.79;99475.98;127063;1105;22426;-83
2021/06/21 14:20:33;;;;;;;11.60;5.03;;;;;;;33.22;30.08;99482.51;127275;1105;22414;-82
2021/06/21 14:23:08;;;;;;;14.70;4.18;;;;;;;33.25;29.43;99481.00;127355;1105;22423;-83
2021/06/21 14:25:46;;;;;;;13.55;3.75;;;;;;;33.16;29.67;99475.66;127368;1105;22516;-83
2021/06/21 14:28:18;;;;;;;15.18;3.55;;;;;;;33.08;29.91;99476.53;127246;1105;22411;-82
2021/06/21 14:31:04;;;;;;;10.20;4.15;;;;;;;33.02;30.11;99480.63;127803;1101;22431;-82
2021/06/21 14:33:36;;;;;;;12.00;3.55;;;;;;;32.99;29.78;99473.09;128012;1102;22422;-81
2021/06/21 14:36:31;;;;;;;7.90;3.35;;;;;;;32.95;29.79;99469.41;127525;1105;22436;-81
2021/06/21 14:39:04;;;;;;;9.25;3.73;;;;;;;32.96;29.69;99460.12;127945;1103;22391;-82